Terminal Aerodrome Forecast
Issued by NWS

Home | Current Version | Previous Version | Text Only | Print | Product List | Glossary On
Versions: 1 2 3 4 5 6 7 8 9 10 11 12 13 14 15 16 17 18 19 20 21 22 23 24 25 26 27 28 29
000
FTUS43 KDTX 232320
TAFDET
TAF
KDET 232320Z 2400/2424 27014G25KT P6SM BKN016 OVC022
     FM240200 29011G20KT P6SM OVC024
     FM240800 29007KT P6SM OVC028
     FM241600 30006KT P6SM BKN040 OVC150=

USA.gov is the U.S. government's official web portal to all federal, state and local government web resources and services.